X  Sluiten METAR luchtvaart weer gegevens      EHRD Rotterdam The Hague Airport
Temperatuur
0°C Temperatuur
0°C Dauwpunt
100% Vochtigheid



Wind
8 KM/U
5 MPH
2 M/S
4 KTS



110°
OZO
Huidig weer

Nevel Nevel
Luchtdruk 1038.91 (hPa) - 30.68 (inHg)
Zicht 3 (mijl) - 4.8 (km)
Vliegveld
Vliegveld code EHRD

Locatie : Rotterdam The Hague Airport
Afstand: 14 (km)

Metar:
EHRD 070425Z AUTO 11004KT 4800 BR FEW021 00/00 Q1039 BECMG 0700 FZFG BKN001

Tijd: 07-02-2023 05:25 CET